createdAt,value
2018-04-08T04:00:24.198Z,12.47
2018-04-08T04:00:49.686Z,12.43
2018-04-08T04:01:15.194Z,12.61
2018-04-08T04:01:40.708Z,12.46
2018-04-08T04:02:06.212Z,12.55
2018-04-08T04:02:31.706Z,12.58
2018-04-08T04:02:57.208Z,12.58
2018-04-08T04:03:22.709Z,12.58
2018-04-08T04:03:48.210Z,12.54
2018-04-08T04:04:13.712Z,12.6
2018-04-08T04:04:39.193Z,12.55
2018-04-08T04:05:04.679Z,12.61
2018-04-08T04:05:30.184Z,12.6
2018-04-08T04:05:55.689Z,12.58
2018-04-08T04:06:21.198Z,12.58
2018-04-08T04:06:46.690Z,12.49
2018-04-08T04:07:12.188Z,12.54
2018-04-08T04:07:37.695Z,12.62
2018-04-08T04:08:03.210Z,12.62
2018-04-08T04:08:28.708Z,12.58
2018-04-08T04:08:54.189Z,12.6
2018-04-08T04:09:19.674Z,12.6
2018-04-08T04:09:45.148Z,12.61
2018-04-08T04:10:10.648Z,12.57
2018-04-08T04:10:36.155Z,12.4
2018-04-08T04:11:01.661Z,12.46
2018-04-08T04:11:27.163Z,12.47
2018-04-08T04:11:52.656Z,12.47
2018-04-08T04:12:18.159Z,12.49
2018-04-08T04:12:43.665Z,12.46
2018-04-08T04:13:09.169Z,12.45
2018-04-08T04:13:34.668Z,12.46
2018-04-08T04:14:00.158Z,12.45
2018-04-08T04:14:25.646Z,12.49
2018-04-08T04:14:51.143Z,12.43
2018-04-08T04:15:16.639Z,12.46
2018-04-08T04:15:42.141Z,12.45
2018-04-08T04:16:07.635Z,12.43
2018-04-08T04:16:33.128Z,12.43
2018-04-08T04:16:58.626Z,12.46
2018-04-08T04:17:24.125Z,12.47
2018-04-08T04:17:49.626Z,12.37
2018-04-08T04:18:15.126Z,12.43
2018-04-08T04:18:40.619Z,12.46
2018-04-08T04:19:06.129Z,12.39
2018-04-08T04:19:31.613Z,12.35
2018-04-08T04:19:57.092Z,12.4
2018-04-08T04:20:22.577Z,12.4
2018-04-08T04:20:48.101Z,12.32
2018-04-08T04:21:13.595Z,12.37
2018-04-08T04:21:39.119Z,12.37
2018-04-08T04:22:04.616Z,12.36
2018-04-08T04:22:30.116Z,12.35
2018-04-08T04:22:55.618Z,12.27
2018-04-08T04:23:21.108Z,12.29
2018-04-08T04:23:46.601Z,12.28
2018-04-08T04:24:12.099Z,12.32
2018-04-08T04:24:37.595Z,12.27
2018-04-08T04:25:03.103Z,12.35
2018-04-08T04:25:28.602Z,12.35
2018-04-08T04:25:54.105Z,12.24
2018-04-08T04:26:19.611Z,12.22
2018-04-08T04:26:45.110Z,12.25
2018-04-08T04:27:10.607Z,12.24
2018-04-08T04:27:36.114Z,12.21
2018-04-08T04:28:01.622Z,12.2
2018-04-08T04:28:27.179Z,12.24
2018-04-08T04:28:52.645Z,12.22
2018-04-08T04:29:18.147Z,12.17
2018-04-08T04:29:43.634Z,12.17
2018-04-08T04:30:09.156Z,12.2
2018-04-08T04:30:34.660Z,12.15
2018-04-08T04:31:00.180Z,12.17
2018-04-08T04:31:25.655Z,12.24
2018-04-08T04:31:51.168Z,12.21
2018-04-08T04:32:16.646Z,12.15
2018-04-08T04:32:42.189Z,12.12
2018-04-08T04:33:07.654Z,12.17
2018-04-08T04:33:33.143Z,12.07
2018-04-08T04:33:58.645Z,12.1
2018-04-08T04:34:24.123Z,12.07
2018-04-08T04:34:49.610Z,12.07
2018-04-08T04:35:15.114Z,12.17
2018-04-08T04:35:40.627Z,12.07
2018-04-08T04:36:06.130Z,12.15
2018-04-08T04:36:31.635Z,12.07
2018-04-08T04:36:57.145Z,12.02
2018-04-08T04:37:22.633Z,12
2018-04-08T04:37:48.159Z,12.09
2018-04-08T04:38:13.649Z,12
2018-04-08T04:38:39.138Z,11.99
2018-04-08T04:39:04.642Z,12.07
2018-04-08T04:39:30.138Z,11.99
2018-04-08T04:39:55.622Z,12.09
2018-04-08T04:40:21.105Z,11.97
2018-04-08T04:40:46.612Z,11.99
2018-04-08T04:41:12.116Z,11.99
2018-04-08T04:41:37.632Z,11.97
2018-04-08T04:42:03.124Z,11.97
2018-04-08T04:42:28.626Z,11.91
2018-04-08T04:42:54.121Z,11.95
2018-04-08T04:43:19.625Z,11.94
2018-04-08T04:43:45.120Z,12
2018-04-08T04:44:10.622Z,12
2018-04-08T04:44:36.130Z,12
2018-04-08T04:45:01.622Z,11.97
2018-04-08T04:45:27.120Z,12
2018-04-08T04:45:52.616Z,11.97
2018-04-08T04:46:18.111Z,12
2018-04-08T04:46:43.611Z,11.97
2018-04-08T04:47:09.113Z,12
2018-04-08T04:47:34.602Z,11.99
2018-04-08T04:48:00.110Z,11.97
2018-04-08T04:48:25.595Z,12.02
2018-04-08T04:48:51.083Z,11.99
2018-04-08T04:49:16.576Z,12.04
2018-04-08T04:49:42.069Z,11.9
2018-04-08T04:50:07.564Z,11.97
2018-04-08T04:50:33.061Z,11.95
2018-04-08T04:50:58.556Z,12.02
2018-04-08T04:51:24.047Z,12
2018-04-08T04:51:49.546Z,11.95
2018-04-08T04:52:15.043Z,12.04
2018-04-08T04:52:40.546Z,11.99
2018-04-08T04:53:06.053Z,12.02
2018-04-08T04:53:31.536Z,12.03
2018-04-08T04:53:57.051Z,11.95
2018-04-08T04:54:22.550Z,12
2018-04-08T04:54:48.048Z,12.03
2018-04-08T04:55:13.538Z,12
2018-04-08T04:55:39.030Z,12.03
2018-04-08T04:56:04.514Z,12.06
2018-04-08T04:56:30.019Z,12.1
2018-04-08T04:56:55.518Z,12.09
2018-04-08T04:57:21.016Z,12.1
2018-04-08T04:57:46.517Z,12.12
2018-04-08T04:58:12.018Z,12.1
2018-04-08T04:58:37.507Z,12.13
2018-04-08T04:59:03.003Z,12.18
2018-04-08T04:59:28.513Z,12.1
2018-04-08T04:59:54.014Z,12.09
2018-04-08T05:00:19.514Z,12.06
2018-04-08T05:00:45.017Z,12.22
2018-04-08T05:01:10.521Z,12.15
2018-04-08T05:01:36.014Z,12.15
2018-04-08T05:02:01.515Z,12.21
2018-04-08T05:02:27.027Z,12.18
2018-04-08T05:02:52.529Z,12.12
2018-04-08T05:03:18.025Z,12.15
2018-04-08T05:03:43.575Z,12.15
2018-04-08T05:04:09.048Z,12.15
2018-04-08T05:04:34.544Z,12.12
2018-04-08T05:05:00.044Z,12.22
2018-04-08T05:05:25.549Z,12.21
2018-04-08T05:05:51.063Z,12.21
2018-04-08T05:06:16.564Z,12.17
2018-04-08T05:06:42.071Z,12.17
2018-04-08T05:07:07.565Z,12.24
2018-04-08T05:07:33.069Z,12.15
2018-04-08T05:07:58.561Z,12.21
2018-04-08T05:08:24.064Z,12.18
2018-04-08T05:08:49.562Z,12.18
2018-04-08T05:09:15.057Z,12.2
2018-04-08T05:09:40.551Z,12.18
2018-04-08T05:10:06.045Z,12.18
2018-04-08T05:10:31.546Z,12.21
2018-04-08T05:10:57.045Z,12.21
2018-04-08T05:11:22.542Z,12.17
2018-04-08T05:11:48.051Z,12.17
2018-04-08T05:12:13.551Z,12.22
2018-04-08T05:12:39.049Z,12.18
2018-04-08T05:13:04.545Z,12.27
2018-04-08T05:13:30.049Z,12.2
2018-04-08T05:13:55.547Z,12.24
2018-04-08T05:14:21.050Z,12.18
2018-04-08T05:14:46.548Z,12.25
2018-04-08T05:15:12.052Z,12.25
2018-04-08T05:15:37.553Z,12.22
2018-04-08T05:16:03.057Z,12.22
2018-04-08T05:16:28.546Z,12.28
2018-04-08T05:16:54.052Z,12.27
2018-04-08T05:17:19.556Z,12.28
2018-04-08T05:17:45.050Z,12.35
2018-04-08T05:18:10.549Z,12.25
2018-04-08T05:18:36.048Z,12.24
2018-04-08T05:19:01.557Z,12.29
2018-04-08T05:19:27.044Z,12.32
2018-04-08T05:19:52.536Z,12.37
2018-04-08T05:20:18.035Z,12.39
2018-04-08T05:20:43.535Z,12.4
2018-04-08T05:21:09.042Z,12.39
2018-04-08T05:21:34.532Z,12.4
2018-04-08T05:22:00.033Z,12.47
2018-04-08T05:22:25.541Z,12.37
2018-04-08T05:22:51.026Z,12.46
2018-04-08T05:23:16.497Z,12.45
2018-04-08T05:23:41.989Z,12.43
2018-04-08T05:24:07.482Z,12.35
2018-04-08T05:24:32.981Z,12.45
2018-04-08T05:24:58.464Z,12.43
2018-04-08T05:25:23.973Z,12.47
2018-04-08T05:25:49.475Z,12.47
2018-04-08T05:26:14.973Z,12.49
2018-04-08T05:26:40.470Z,12.46
2018-04-08T05:27:05.966Z,12.6
2018-04-08T05:27:31.464Z,12.58
2018-04-08T05:27:56.963Z,12.6
2018-04-08T05:28:22.465Z,12.6
2018-04-08T05:28:47.961Z,12.61
2018-04-08T05:29:13.467Z,12.73
2018-04-08T05:29:38.969Z,12.61
2018-04-08T05:30:04.469Z,12.61
2018-04-08T05:30:29.967Z,12.6
2018-04-08T05:30:55.467Z,12.62
2018-04-08T05:31:20.948Z,12.7
2018-04-08T05:31:46.452Z,12.75
2018-04-08T05:32:11.957Z,12.76
2018-04-08T05:32:37.414Z,12.68
2018-04-08T05:33:02.873Z,12.79
2018-04-08T05:33:28.373Z,12.8
2018-04-08T05:33:53.838Z,12.76
2018-04-08T05:34:19.331Z,12.8
2018-04-08T05:34:44.832Z,12.82
2018-04-08T05:35:10.318Z,12.76
2018-04-08T05:35:35.766Z,12.78
2018-04-08T05:36:01.236Z,12.79
2018-04-08T05:36:26.698Z,12.78
2018-04-08T05:36:52.170Z,12.79
2018-04-08T05:37:17.649Z,12.91
2018-04-08T05:37:43.097Z,12.83
2018-04-08T05:38:46.663Z,12.91
2018-04-08T05:39:12.166Z,12.9
2018-04-08T05:39:37.662Z,12.9
2018-04-08T05:40:03.154Z,12.9
2018-04-08T05:40:28.597Z,12.93
2018-04-08T05:40:54.084Z,12.97
2018-04-08T05:41:19.549Z,12.95
2018-04-08T05:41:45.007Z,12.94
2018-04-08T05:42:10.451Z,13.04
2018-04-08T05:42:35.927Z,13
2018-04-08T05:43:01.405Z,13.04
2018-04-08T05:43:26.887Z,13.03
2018-04-08T05:43:52.355Z,13.03
2018-04-08T05:44:17.814Z,13.04
2018-04-08T05:44:43.283Z,13.08
2018-04-08T05:45:08.800Z,13.04
2018-04-08T05:45:34.265Z,13.09
2018-04-08T05:45:59.753Z,13.08
2018-04-08T05:46:25.248Z,13.13
2018-04-08T05:46:50.753Z,13.12
2018-04-08T05:47:16.244Z,13.12
2018-04-08T05:47:41.746Z,13.15
2018-04-08T05:48:07.232Z,13.16
2018-04-08T05:48:32.734Z,13.13
2018-04-08T05:48:58.227Z,13.25
2018-04-08T05:49:23.724Z,13.35
2018-04-08T05:49:49.217Z,13.33
2018-04-08T05:50:14.688Z,13.33
2018-04-08T05:50:40.181Z,13.37
2018-04-08T05:51:05.686Z,13.27
2018-04-08T05:51:31.171Z,13.35
2018-04-08T05:51:56.639Z,13.38
2018-04-08T05:52:22.118Z,13.33
2018-04-08T05:52:47.612Z,13.38
2018-04-08T05:53:13.120Z,13.49
2018-04-08T05:53:38.644Z,13.46
2018-04-08T05:54:04.142Z,13.41
2018-04-08T05:54:29.639Z,13.42
2018-04-08T05:54:55.149Z,13.5
2018-04-08T05:55:20.638Z,13.53
2018-04-08T05:55:46.137Z,13.49
2018-04-08T05:56:11.633Z,13.63
2018-04-08T05:56:37.130Z,13.67
2018-04-08T05:57:02.620Z,13.65
2018-04-08T05:57:28.124Z,13.65
2018-04-08T05:57:53.611Z,13.68
2018-04-08T05:58:19.100Z,13.74
2018-04-08T05:58:44.556Z,13.75
2018-04-08T05:59:10.013Z,13.74
2018-04-08T05:59:35.462Z,13.79
2018-04-08T06:00:00.917Z,13.78
2018-04-08T06:00:26.391Z,13.78
2018-04-08T06:01:35.074Z,13.95
2018-04-08T06:02:00.568Z,13.92
2018-04-08T06:02:26.058Z,13.92
2018-04-08T06:02:51.558Z,14.04
2018-04-08T06:03:17.029Z,13.95
2018-04-08T06:03:42.517Z,14.03
2018-04-08T06:04:07.971Z,14.04
2018-04-08T06:04:33.412Z,14.08
2018-04-08T06:04:58.862Z,14.04
2018-04-08T06:05:24.379Z,14.07
2018-04-08T06:05:49.849Z,14
2018-04-08T06:06:15.350Z,14.05
2018-04-08T06:06:40.843Z,14.14
2018-04-08T06:07:06.311Z,14.15
2018-04-08T06:07:59.767Z,14.22
2018-04-08T06:08:25.268Z,14.25
2018-04-08T06:08:50.764Z,14.17
2018-04-08T06:09:16.272Z,14.18
2018-04-08T06:09:41.764Z,14.22
2018-04-08T06:10:07.279Z,14.28
2018-04-08T06:10:32.768Z,14.32
2018-04-08T06:10:58.272Z,14.28
2018-04-08T06:11:23.764Z,14.29
2018-04-08T06:11:49.257Z,14.2
2018-04-08T06:12:14.739Z,14.2
2018-04-08T06:12:40.219Z,14.25
2018-04-08T06:13:05.670Z,14.18
2018-04-08T06:13:31.142Z,14.26
2018-04-08T06:13:56.599Z,14.17
2018-04-08T06:14:22.046Z,14.26
2018-04-08T06:14:47.608Z,14.17
2018-04-08T06:15:13.155Z,14.15
2018-04-08T06:15:38.614Z,14.26
2018-04-08T06:16:04.112Z,14.25
2018-04-08T06:16:29.622Z,14.18
2018-04-08T06:16:55.142Z,14.18
2018-04-08T06:17:20.632Z,14.23
2018-04-08T06:17:46.100Z,14.23
2018-04-08T06:18:11.591Z,14.18
2018-04-08T06:18:37.085Z,14.2
2018-04-08T06:19:02.589Z,14.18
2018-04-08T06:19:28.100Z,14.18
2018-04-08T06:19:53.594Z,14.15
2018-04-08T06:20:19.091Z,14.17
2018-04-08T06:20:44.592Z,14.12
2018-04-08T06:21:10.084Z,14.18
2018-04-08T06:21:35.579Z,14.14
2018-04-08T06:22:01.072Z,14.14
2018-04-08T06:22:26.585Z,14.17
2018-04-08T06:22:52.084Z,14.2
2018-04-08T06:23:17.582Z,14.12
2018-04-08T06:23:43.071Z,14.12
2018-04-08T06:24:08.588Z,14.2
2018-04-08T06:24:34.091Z,14.18
2018-04-08T06:24:59.596Z,14.23
2018-04-08T06:25:25.110Z,14.2
2018-04-08T06:25:50.610Z,14.22
2018-04-08T06:26:16.137Z,14.23
2018-04-08T06:26:41.642Z,14.23
2018-04-08T06:27:07.140Z,14.23
2018-04-08T06:27:32.647Z,14.23
2018-04-08T06:27:58.145Z,14.25
2018-04-08T06:28:23.640Z,14.25
2018-04-08T06:28:49.132Z,14.22
2018-04-08T06:29:14.634Z,14.26
2018-04-08T06:29:40.142Z,14.25
2018-04-08T06:30:05.632Z,14.2
2018-04-08T06:30:31.114Z,14.3
2018-04-08T06:30:56.612Z,14.26
2018-04-08T06:31:22.128Z,14.32
2018-04-08T06:31:47.619Z,14.29
2018-04-08T06:32:13.114Z,14.32
2018-04-08T06:32:38.616Z,14.28
2018-04-08T06:33:04.119Z,14.29
2018-04-08T06:33:29.625Z,14.32
2018-04-08T06:33:55.125Z,14.28
2018-04-08T06:34:20.631Z,14.29
2018-04-08T06:34:46.136Z,14.33
2018-04-08T06:35:11.647Z,14.25
2018-04-08T06:35:37.150Z,14.33
2018-04-08T06:36:02.641Z,14.3
2018-04-08T06:36:28.140Z,14.29
2018-04-08T06:36:53.635Z,14.29
2018-04-08T06:37:19.125Z,14.35
2018-04-08T06:37:44.606Z,14.29
2018-04-08T06:38:10.093Z,14.29
2018-04-08T06:38:35.595Z,14.3
2018-04-08T06:39:01.105Z,14.29
2018-04-08T06:39:26.619Z,14.29
2018-04-08T06:39:52.122Z,14.29
2018-04-08T06:40:17.621Z,14.33
2018-04-08T06:40:43.136Z,14.33
2018-04-08T06:41:08.651Z,14.32
2018-04-08T06:41:34.171Z,14.29
2018-04-08T06:41:59.662Z,14.3
2018-04-08T06:42:25.156Z,14.32
2018-04-08T06:42:50.662Z,14.29
2018-04-08T06:43:16.161Z,14.29
2018-04-08T06:43:41.652Z,14.29
2018-04-08T06:44:07.156Z,14.29
2018-04-08T06:44:32.656Z,14.12
2018-04-08T06:44:58.157Z,14.28
2018-04-08T06:45:23.670Z,14.32
2018-04-08T06:45:49.174Z,14.3
2018-04-08T06:46:14.670Z,14.26
2018-04-08T06:46:40.173Z,14.26
2018-04-08T06:47:05.670Z,14.22
2018-04-08T06:47:31.175Z,14.26
2018-04-08T06:47:56.683Z,14.14
2018-04-08T06:48:22.202Z,14.29
2018-04-08T06:48:47.701Z,14.32
2018-04-08T06:49:13.211Z,14.22
2018-04-08T06:49:38.710Z,14.26
2018-04-08T06:50:04.214Z,14.32
2018-04-08T06:50:29.734Z,14.25
2018-04-08T06:50:55.257Z,14.28
2018-04-08T06:51:20.747Z,14.3
2018-04-08T06:51:46.246Z,14.3
2018-04-08T06:52:11.750Z,14.33
2018-04-08T06:52:37.252Z,14.29
2018-04-08T06:53:02.749Z,14.26
2018-04-08T06:53:28.254Z,14.35
2018-04-08T06:53:53.751Z,14.29
2018-04-08T06:54:19.250Z,14.28
2018-04-08T06:54:44.736Z,14.33
2018-04-08T06:55:10.231Z,14.33
2018-04-08T06:55:35.724Z,14.35
2018-04-08T06:56:01.234Z,14.36
2018-04-08T06:56:26.757Z,14.33
2018-04-08T06:56:52.214Z,14.4
2018-04-08T06:57:17.735Z,14.44
2018-04-08T06:57:43.417Z,14.33
2018-04-08T06:58:08.864Z,14.41
2018-04-08T06:58:34.336Z,14.37
2018-04-08T06:58:59.857Z,14.36
2018-04-08T06:59:25.373Z,14.4
2018-04-08T06:59:50.826Z,14.5
2018-04-08T07:00:16.324Z,14.44
2018-04-08T07:00:41.817Z,14.47
2018-04-08T07:01:07.335Z,14.51
2018-04-08T07:01:32.829Z,14.51
2018-04-08T07:01:58.280Z,14.43
2018-04-08T07:02:23.746Z,14.43
2018-04-08T07:02:49.356Z,14.43
2018-04-08T07:03:14.833Z,14.48
2018-04-08T07:03:40.341Z,14.44
2018-04-08T07:04:05.842Z,14.43
2018-04-08T07:04:31.342Z,14.43
2018-04-08T07:04:56.843Z,14.48
2018-04-08T07:05:22.350Z,14.48
2018-04-08T07:05:47.841Z,14.47
2018-04-08T07:06:13.337Z,14.48
2018-04-08T07:06:38.834Z,14.5
2018-04-08T07:07:04.309Z,14.55
2018-04-08T07:07:29.832Z,14.51
2018-04-08T07:07:55.317Z,14.55
2018-04-08T07:08:20.819Z,14.45
2018-04-08T07:08:46.316Z,14.58
2018-04-08T07:09:11.844Z,14.6
2018-04-08T07:09:37.361Z,14.54
2018-04-08T07:10:02.850Z,14.58
2018-04-08T07:10:28.339Z,14.55
2018-04-08T07:10:53.833Z,14.6
2018-04-08T07:11:19.334Z,14.7
2018-04-08T07:11:44.834Z,14.65
2018-04-08T07:12:10.328Z,14.69
2018-04-08T07:12:35.828Z,14.77
2018-04-08T07:13:01.333Z,14.69
2018-04-08T07:13:26.817Z,14.77
2018-04-08T07:13:52.323Z,14.79
2018-04-08T07:14:17.819Z,14.79
2018-04-08T07:14:43.314Z,14.72
2018-04-08T07:15:08.816Z,14.82
2018-04-08T07:15:34.315Z,14.85
2018-04-08T07:15:59.815Z,14.84
2018-04-08T07:16:25.306Z,14.82
2018-04-08T07:16:50.805Z,14.82
2018-04-08T07:17:16.300Z,14.86
2018-04-08T07:17:41.799Z,14.89
2018-04-08T07:18:07.300Z,14.84
2018-04-08T07:18:32.858Z,14.94
2018-04-08T07:18:58.296Z,14.86
2018-04-08T07:19:23.793Z,14.96
2018-04-08T07:19:49.295Z,15.02
2018-04-08T07:20:14.793Z,15.07
2018-04-08T07:20:40.291Z,14.99
2018-04-08T07:21:05.789Z,15.09
2018-04-08T07:21:31.286Z,15.04
2018-04-08T07:21:56.772Z,15.07
2018-04-08T07:22:22.250Z,15.14
2018-04-08T07:22:47.765Z,15.1
2018-04-08T07:23:13.261Z,15.14
2018-04-08T07:23:38.760Z,15.11
2018-04-08T07:24:04.272Z,15.25
2018-04-08T07:24:29.803Z,15.25
2018-04-08T07:24:55.305Z,15.21
2018-04-08T07:25:20.810Z,15.27
2018-04-08T07:25:46.266Z,15.31
2018-04-08T07:26:11.753Z,15.29
2018-04-08T07:26:37.222Z,15.29
2018-04-08T07:27:02.713Z,15.33
2018-04-08T07:27:28.207Z,15.27
2018-04-08T07:27:53.715Z,15.35
2018-04-08T07:28:19.208Z,15.29
2018-04-08T07:28:44.711Z,15.33
2018-04-08T07:29:10.191Z,15.35
2018-04-08T07:29:35.699Z,15.35
2018-04-08T07:30:01.174Z,15.29
2018-04-08T07:30:26.682Z,15.35
2018-04-08T07:30:52.157Z,15.36
2018-04-08T07:31:17.641Z,15.4
2018-04-08T07:31:43.136Z,15.39
2018-04-08T07:32:08.642Z,15.39
2018-04-08T07:32:34.140Z,15.43
2018-04-08T07:32:59.643Z,15.36
2018-04-08T07:33:25.143Z,15.49
2018-04-08T07:33:50.644Z,15.44
2018-04-08T07:34:16.154Z,15.51
2018-04-08T07:34:41.623Z,15.54
2018-04-08T07:35:07.112Z,15.54
2018-04-08T07:35:32.638Z,15.55
2018-04-08T07:35:58.140Z,15.52
2018-04-08T07:36:23.633Z,15.51
2018-04-08T07:36:49.142Z,15.61
2018-04-08T07:37:14.645Z,15.55
2018-04-08T07:37:40.144Z,15.55
2018-04-08T07:38:05.674Z,15.59
2018-04-08T07:38:31.136Z,15.59
2018-04-08T07:38:56.640Z,15.64
2018-04-08T07:39:22.148Z,15.59
2018-04-08T07:39:47.649Z,15.58
2018-04-08T07:40:13.155Z,15.61
2018-04-08T07:40:38.660Z,15.7
2018-04-08T07:41:04.160Z,15.68
2018-04-08T07:41:29.655Z,15.65
2018-04-08T07:41:55.140Z,15.73
2018-04-08T07:42:20.636Z,15.73
2018-04-08T07:42:46.134Z,15.67
2018-04-08T07:43:11.631Z,15.7
2018-04-08T07:43:37.141Z,15.76
2018-04-08T07:44:02.641Z,15.77
2018-04-08T07:44:28.132Z,15.86
2018-04-08T07:44:53.628Z,15.83
2018-04-08T07:45:19.136Z,15.86
2018-04-08T07:45:44.629Z,15.82
2018-04-08T07:46:10.133Z,15.97
2018-04-08T07:46:35.637Z,15.9
2018-04-08T07:47:01.142Z,16
2018-04-08T07:47:26.647Z,16.04
2018-04-08T07:47:52.141Z,16.01
2018-04-08T07:48:17.636Z,16.12
2018-04-08T07:48:43.147Z,16.05
2018-04-08T07:49:08.638Z,16.13
2018-04-08T07:49:34.132Z,16.13
2018-04-08T07:49:59.662Z,16.16
2018-04-08T07:50:25.137Z,16.23
2018-04-08T07:50:50.635Z,16.36
2018-04-08T07:51:16.143Z,16.31
2018-04-08T07:51:41.637Z,16.41
2018-04-08T07:52:07.146Z,16.43
2018-04-08T07:52:32.631Z,16.47
2018-04-08T07:52:58.127Z,16.5
2018-04-08T07:53:23.622Z,16.53
2018-04-08T07:53:49.125Z,16.57
2018-04-08T07:54:14.620Z,16.61
2018-04-08T07:54:40.117Z,16.57
2018-04-08T07:55:05.613Z,16.61
2018-04-08T07:55:31.115Z,16.69
2018-04-08T07:55:56.611Z,16.72
2018-04-08T07:56:22.104Z,16.86
2018-04-08T07:56:47.614Z,16.81
2018-04-08T07:57:13.111Z,16.78
2018-04-08T07:57:38.590Z,16.89
2018-04-08T07:58:04.088Z,16.91
2018-04-08T07:58:29.585Z,16.9
2018-04-08T07:58:55.096Z,16.99
2018-04-08T07:59:20.601Z,16.91
2018-04-08T07:59:46.100Z,16.99
2018-04-08T08:00:11.579Z,16.94
2018-04-08T08:00:37.087Z,16.97
2018-04-08T08:01:02.592Z,16.93
2018-04-08T08:01:28.107Z,16.99
2018-04-08T08:01:53.625Z,16.94
2018-04-08T08:02:19.123Z,16.97
2018-04-08T08:02:44.620Z,17.08
2018-04-08T08:03:10.120Z,17.05
2018-04-08T08:03:35.627Z,17.02
2018-04-08T08:04:01.126Z,17.06
2018-04-08T08:04:26.626Z,17.04
2018-04-08T08:04:52.131Z,17.05
2018-04-08T08:05:17.676Z,17.06
2018-04-08T08:05:43.133Z,17.04
2018-04-08T08:06:08.636Z,17.11
2018-04-08T08:06:34.148Z,17.06
2018-04-08T08:06:59.646Z,17.08
2018-04-08T08:07:25.109Z,17.06
2018-04-08T08:07:50.598Z,16.93
2018-04-08T08:08:16.093Z,17.04
2018-04-08T08:08:41.602Z,17.04
2018-04-08T08:09:07.119Z,17.05
2018-04-08T08:09:32.628Z,16.94
2018-04-08T08:09:58.128Z,17.01
2018-04-08T08:10:23.620Z,17.04
2018-04-08T08:10:49.127Z,17.01
2018-04-08T08:11:14.638Z,17.08
2018-04-08T08:11:40.134Z,17.08
2018-04-08T08:12:05.642Z,16.97
2018-04-08T08:12:31.164Z,17.01
2018-04-08T08:12:56.666Z,16.99
2018-04-08T08:13:22.157Z,17.04
2018-04-08T08:13:47.659Z,16.99
2018-04-08T08:14:13.160Z,16.96
2018-04-08T08:14:38.667Z,17.01
2018-04-08T08:15:04.166Z,16.97
2018-04-08T08:15:29.711Z,17.04
2018-04-08T08:15:55.195Z,16.99
2018-04-08T08:16:20.699Z,17.02
2018-04-08T08:16:46.196Z,16.97
2018-04-08T08:17:11.686Z,17.04
2018-04-08T08:17:37.186Z,17.06
2018-04-08T08:18:02.690Z,16.97
2018-04-08T08:18:28.188Z,17.05
2018-04-08T08:18:53.687Z,17.05
2018-04-08T08:19:19.184Z,17.06
2018-04-08T08:19:44.682Z,17.14
2018-04-08T08:20:10.191Z,17.11
2018-04-08T08:20:35.699Z,17.22
2018-04-08T08:21:01.214Z,17.23
2018-04-08T08:21:26.717Z,17.24
2018-04-08T08:21:52.222Z,17.36
2018-04-08T08:22:17.726Z,17.27
2018-04-08T08:22:43.236Z,17.31
2018-04-08T08:23:08.736Z,17.41
2018-04-08T08:23:34.240Z,17.31
2018-04-08T08:23:59.746Z,17.42
2018-04-08T08:24:25.251Z,17.34
2018-04-08T08:24:50.750Z,17.48
2018-04-08T08:25:16.258Z,17.48
2018-04-08T08:25:41.754Z,17.49
2018-04-08T08:26:07.251Z,17.49
2018-04-08T08:26:32.777Z,17.49
2018-04-08T08:26:58.281Z,17.46
2018-04-08T08:27:23.777Z,17.49
2018-04-08T08:27:49.288Z,17.6
2018-04-08T08:28:14.796Z,17.64
2018-04-08T08:28:40.295Z,17.67
2018-04-08T08:29:05.794Z,17.72
2018-04-08T08:29:31.297Z,17.76
2018-04-08T08:29:56.796Z,17.72
2018-04-08T08:30:22.302Z,17.74
2018-04-08T08:30:47.803Z,17.78
2018-04-08T08:31:13.308Z,17.86
2018-04-08T08:31:38.809Z,17.82
2018-04-08T08:32:04.315Z,17.78
2018-04-08T08:32:29.824Z,17.76
2018-04-08T08:32:55.320Z,17.85
2018-04-08T08:33:20.824Z,17.89
2018-04-08T08:33:46.320Z,17.86
2018-04-08T08:34:11.817Z,17.89
2018-04-08T08:34:37.314Z,17.83
2018-04-08T08:35:02.817Z,17.87
2018-04-08T08:35:28.319Z,17.89
2018-04-08T08:35:53.831Z,17.92
2018-04-08T08:36:19.332Z,17.98
2018-04-08T08:36:44.840Z,18
2018-04-08T08:37:10.336Z,17.98
2018-04-08T08:37:35.845Z,18.11
2018-04-08T08:38:01.324Z,18.08
2018-04-08T08:38:26.834Z,18.03
2018-04-08T08:38:52.322Z,18.07
2018-04-08T08:39:17.822Z,18.11
2018-04-08T08:39:43.329Z,18.16
2018-04-08T08:40:08.837Z,18.11
2018-04-08T08:40:34.340Z,18.08
2018-04-08T08:40:59.836Z,18.18
2018-04-08T08:41:25.346Z,18.16
2018-04-08T08:41:50.848Z,18.25
2018-04-08T08:42:16.350Z,18.28
2018-04-08T08:42:41.854Z,18.25
2018-04-08T08:43:07.359Z,18.29
2018-04-08T08:43:32.865Z,18.35
2018-04-08T08:43:58.368Z,18.35
2018-04-08T08:44:23.879Z,18.33
2018-04-08T08:44:49.377Z,18.33
2018-04-08T08:45:14.880Z,18.37
2018-04-08T08:45:40.368Z,18.41
2018-04-08T08:46:05.872Z,18.43
2018-04-08T08:46:31.373Z,18.47
2018-04-08T08:46:56.887Z,18.44
2018-04-08T08:47:22.382Z,18.55
2018-04-08T08:47:47.883Z,18.53
2018-04-08T08:48:13.384Z,18.53
2018-04-08T08:48:38.899Z,18.55
2018-04-08T08:49:04.402Z,18.58
2018-04-08T08:49:29.911Z,18.66
2018-04-08T08:49:55.410Z,18.68
2018-04-08T08:50:20.917Z,18.77
2018-04-08T08:50:46.421Z,18.73
2018-04-08T08:51:11.925Z,18.86
2018-04-08T08:51:37.430Z,18.8
2018-04-08T08:52:02.932Z,18.86
2018-04-08T08:52:28.438Z,18.95
2018-04-08T08:52:53.946Z,18.98
2018-04-08T08:53:19.444Z,19.02
2018-04-08T08:53:44.947Z,19.14
2018-04-08T08:54:10.442Z,19.16
2018-04-08T08:54:35.947Z,19.19
2018-04-08T08:55:01.480Z,19.15
2018-04-08T08:55:26.954Z,19.29
2018-04-08T08:55:52.454Z,19.37
2018-04-08T08:56:17.974Z,19.4
2018-04-08T08:56:43.480Z,19.34
2018-04-08T08:57:08.979Z,19.4
2018-04-08T08:57:34.477Z,19.34
2018-04-08T08:57:59.973Z,19.49
2018-04-08T08:58:25.470Z,19.51
2018-04-08T08:58:50.977Z,19.52
2018-04-08T08:59:16.483Z,19.58
2018-04-08T08:59:41.988Z,19.58
2018-04-08T09:00:07.501Z,19.63
2018-04-08T09:00:33.007Z,19.66
2018-04-08T09:00:58.508Z,19.66
2018-04-08T09:01:24.002Z,19.79
2018-04-08T09:01:49.509Z,19.79
2018-04-08T09:02:15.019Z,19.82
2018-04-08T09:02:40.522Z,19.84
2018-04-08T09:03:06.024Z,19.79
2018-04-08T09:03:31.526Z,19.92
2018-04-08T09:03:57.040Z,19.99
2018-04-08T09:04:22.540Z,20
2018-04-08T09:04:48.057Z,20.02
2018-04-08T09:05:13.564Z,20.03
2018-04-08T09:05:39.077Z,20.1
2018-04-08T09:06:04.572Z,20.06
2018-04-08T09:06:30.072Z,20.18
2018-04-08T09:06:55.576Z,20.21
2018-04-08T09:07:21.084Z,20.21
2018-04-08T09:07:46.590Z,20.22
2018-04-08T09:08:12.086Z,20.34
2018-04-08T09:08:37.585Z,20.28
2018-04-08T09:09:03.103Z,20.26
2018-04-08T09:09:28.610Z,20.26
2018-04-08T09:09:54.131Z,20.36
2018-04-08T09:10:19.642Z,20.29
2018-04-08T09:10:45.142Z,20.24
2018-04-08T09:11:10.654Z,20.39
2018-04-08T09:11:36.158Z,20.39
2018-04-08T09:12:01.672Z,20.47
2018-04-08T09:12:27.180Z,20.43
2018-04-08T09:12:52.691Z,20.52
2018-04-08T09:13:18.178Z,20.56
2018-04-08T09:13:43.688Z,20.59
2018-04-08T09:14:09.196Z,20.6
2018-04-08T09:14:34.698Z,20.62
2018-04-08T09:15:00.206Z,20.63
2018-04-08T09:15:25.718Z,20.65
2018-04-08T09:15:51.227Z,20.74
2018-04-08T09:16:16.737Z,20.72
2018-04-08T09:16:42.238Z,20.69
2018-04-08T09:17:07.736Z,20.7
2018-04-08T09:17:33.261Z,20.85
2018-04-08T09:17:58.742Z,20.82
2018-04-08T09:18:24.245Z,20.84
2018-04-08T09:18:49.789Z,20.93
2018-04-08T09:19:15.293Z,20.88
2018-04-08T09:19:40.801Z,20.95
2018-04-08T09:20:06.299Z,20.92
2018-04-08T09:20:31.826Z,20.99
2018-04-08T09:20:57.330Z,21.05
2018-04-08T09:21:22.831Z,20.99
2018-04-08T09:21:48.328Z,20.95
2018-04-08T09:22:13.823Z,21
2018-04-08T09:22:39.319Z,21.09
2018-04-08T09:23:04.819Z,20.96
2018-04-08T09:23:30.344Z,21.05
2018-04-08T09:23:55.847Z,21.11
2018-04-08T09:24:21.345Z,21.09
2018-04-08T09:24:46.850Z,21.09
2018-04-08T09:25:12.350Z,21.09
2018-04-08T09:25:37.849Z,21.06
2018-04-08T09:26:03.355Z,21.09
2018-04-08T09:26:28.865Z,21.15
2018-04-08T09:26:54.361Z,21.07
2018-04-08T09:27:19.865Z,21.12
2018-04-08T09:27:45.363Z,21.02
2018-04-08T09:28:10.916Z,21.05
2018-04-08T09:28:36.382Z,20.99
2018-04-08T09:29:01.882Z,20.99
2018-04-08T09:29:27.388Z,20.97
2018-04-08T09:29:52.890Z,20.93
2018-04-08T09:30:18.377Z,20.97
2018-04-08T09:30:43.893Z,20.9
2018-04-08T09:31:09.376Z,20.92
2018-04-08T09:31:34.883Z,20.9
2018-04-08T09:32:00.384Z,20.93